Latest Weather Observations for Minnipa RS

IDS60801

Issued at 6:31 pm CST Tuesday 7 July 2015 (issued every 30 minutes, with the page automatically refreshed every 10 minutes)

About weather observations | Map of weather stations | Latest weather observations for SA | Other Formats
Station Details ID: 018195 Name: MINNIPA PIRSA Lat: -32.84 Lon: 135.15 Height: 165.0 m
Data from the previous 72 hours. | See also: Recent months at Minnipa RS
Date/Time
CST
Temp
°C
App
Temp
°C
Dew
Point
Rel
Hum
%
Delta-T
°C
Wind Press
QNH
hPa
Press
MSL
hPa
Rain
since 9 am
mm
Dir
 
Spd
km/h
Gust
km/h
Spd
kts
Gust
kts
07/06:30pm 12.6 9.8 3.0 52 4.3 SW 7 9 4 5 1023.4 - 0.0
07/06:00pm 12.8 10.0 3.2 52 4.3 W 7 13 4 7 1023.3 1023.5 0.0
07/05:30pm 12.8 10.0 3.2 52 4.3 WNW 7 9 4 5 1023.1 - 0.0
07/05:00pm 13.1 11.6 3.2 51 4.4 CALM 0 4 0 2 1022.9 - 0.0
07/04:30pm 13.3 11.4 3.1 50 4.6 WNW 2 9 1 5 1023.0 - 0.0
07/04:00pm 13.4 10.7 2.9 49 4.7 S 6 9 3 5 1023.0 - 0.0
07/03:30pm 13.5 10.9 3.3 50 4.6 W 6 9 3 5 1022.9 - 0.0
07/03:00pm 13.5 10.7 3.3 50 4.6 SW 7 11 4 6 1023.1 1023.3 0.0
07/02:30pm 13.6 10.5 3.7 51 4.5 SW 9 19 5 10 1023.2 - 0.0
07/02:00pm 13.9 10.5 3.9 51 4.6 WSW 11 17 6 9 1023.2 - 0.0
07/01:30pm 13.8 10.6 3.0 48 4.9 WNW 9 15 5 8 1023.3 - 0.0
07/01:00pm 13.7 11.2 3.5 50 4.6 SSW 6 9 3 5 1023.7 - 0.0
07/12:30pm 13.9 11.1 3.4 49 4.8 NW 7 15 4 8 1024.1 - 0.0
07/12:00pm 13.2 9.7 3.6 52 4.3 SSW 11 13 6 7 1024.5 1024.6 0.0
07/11:30am 13.4 11.0 4.3 54 4.2 W 6 11 3 6 1024.6 - 0.0
07/11:00am 12.7 9.6 3.6 54 4.1 S 9 17 5 9 1024.8 - 0.0
07/10:30am 12.6 10.0 4.3 57 3.8 SE 7 11 4 6 1024.9 - 0.0
07/10:00am 12.0 9.3 5.4 64 3.1 SE 9 11 5 6 1024.9 - 0.0
07/09:30am 11.8 9.8 6.3 69 2.6 SSE 6 9 3 5 1024.6 - 0.0
07/09:00am 10.9 9.0 6.8 76 1.9 WSW 6 7 3 4 1024.5 1024.6 0.0
07/08:30am 10.3 8.6 7.5 83 1.4 WNW 6 9 3 5 1024.3 - 0.0
07/08:00am 9.9 9.3 7.5 85 1.2 CALM 0 7 0 4 1024.0 - 0.0
07/07:30am 9.6 8.2 7.4 86 1.1 NNW 4 6 2 3 1023.7 - 0.0
07/07:00am 9.7 7.9 7.3 85 1.1 WNW 6 7 3 4 1023.6 - 0.0
07/06:30am 9.8 7.8 7.2 84 1.2 WNW 7 9 4 5 1023.3 - 0.0
07/06:00am 9.8 8.7 7.1 83 1.3 N 2 6 1 3 1022.9 1023.1 0.0
07/05:30am 10.1 8.0 6.8 80 1.6 W 7 11 4 6 1022.7 - 0.0
07/05:00am 10.2 8.1 6.5 78 1.7 W 7 9 4 5 1022.6 - 0.0
07/04:30am 10.3 9.4 5.9 74 2.0 CALM 0 6 0 3 1022.6 - 0.0
07/04:00am 10.7 8.0 5.7 71 2.3 W 9 13 5 7 1022.7 - 0.0
07/03:30am 10.6 8.8 5.6 71 2.3 SW 4 9 2 5 1022.8 - 0.0
07/03:00am 10.6 9.0 6.2 74 2.1 SSW 4 6 2 3 1022.7 1022.9 0.0
07/02:30am 10.4 9.5 6.2 75 2.0 CALM 0 4 0 2 1022.7 - 0.0
07/02:00am 10.5 9.2 6.1 74 2.1 S 2 6 1 3 1022.7 - 0.0
07/01:30am 10.8 8.6 6.2 73 2.2 WSW 7 11 4 6 1022.8 - 0.0
07/01:00am 10.7 8.6 6.5 75 2.0 WNW 7 9 4 5 1022.7 - 0.0
07/12:30am 11.2 9.0 6.1 71 2.4 WSW 7 13 4 7 1022.8 - 0.0
07/12:00am 11.1 9.0 6.6 74 2.1 WSW 7 9 4 5 1023.0 1023.2 0.0
 
Date/Time
CST
Temp
°C
App
Temp
°C
Dew
Point
Rel
Hum
%
Delta-T
°C
Wind Press
QNH
hPa
Press
MSL
hPa
Rain
since 9 am
mm
Dir
 
Spd
km/h
Gust
km/h
Spd
kts
Gust
kts
06/11:30pm 11.0 9.1 6.7 75 2.1 WSW 6 6 3 3 1023.1 - 0.0
06/11:00pm 11.2 8.7 6.7 74 2.1 WSW 9 13 5 7 1023.1 - 0.0
06/10:30pm 11.4 8.5 6.5 72 2.3 WSW 11 19 6 10 1023.1 - 0.0
06/10:00pm 11.6 9.1 6.5 71 2.4 SW 9 13 5 7 1022.9 - 0.0
06/09:30pm 11.0 9.0 6.9 76 2.0 W 7 9 4 5 1022.9 - 0.0
06/09:00pm 11.9 8.9 5.8 66 2.9 SW 11 17 6 9 1022.6 1022.8 0.0
06/08:30pm 11.2 8.5 7.3 77 1.9 SSW 11 17 6 9 1022.5 - 0.0
06/08:00pm 11.9 8.0 7.0 72 2.4 SSW 17 22 9 12 1022.2 - 0.0
06/07:30pm 11.9 9.1 6.8 71 2.5 WSW 11 24 6 13 1021.9 - 0.0
06/07:00pm 11.8 9.0 6.9 72 2.4 WSW 11 17 6 9 1021.5 - 0.0
06/06:30pm 12.2 8.6 6.9 70 2.6 SW 15 20 8 11 1021.2 - 0.0
06/06:00pm 12.1 8.8 6.4 68 2.7 SW 13 19 7 10 1021.0 1021.2 0.0
06/05:30pm 12.7 9.2 7.0 68 2.8 SW 15 22 8 12 1020.7 - 0.0
06/05:00pm 13.2 8.7 6.3 63 3.3 SW 19 24 10 13 1020.4 - 0.0
06/04:30pm 13.7 9.2 6.3 61 3.6 SW 19 26 10 14 1020.2 - 0.0
06/04:00pm 14.3 9.8 6.2 58 3.9 SW 19 28 10 15 1020.1 - 0.0
06/03:30pm 14.4 9.2 5.7 56 4.2 SW 22 30 12 16 1020.0 - 0.0
06/03:00pm 14.7 9.1 7.0 60 3.8 SW 26 35 14 19 1019.9 1020.0 0.0
06/02:30pm 15.5 11.0 7.0 57 4.2 WSW 20 26 11 14 1019.8 - 0.0
06/02:00pm 15.6 10.6 6.6 55 4.4 SW 22 30 12 16 1019.8 - 0.0
06/01:30pm 14.7 10.3 7.3 61 3.7 SW 20 28 11 15 1020.0 - 0.0
06/01:00pm 14.8 10.2 6.6 58 4.0 W 20 30 11 16 1020.2 - 0.0
06/12:30pm 14.0 11.1 8.2 68 2.9 WSW 13 19 7 10 1020.4 - 0.0
06/12:00pm 13.7 10.5 8.3 70 2.7 WSW 15 20 8 11 1020.8 1020.9 0.0
06/11:30am 12.7 9.2 10.1 84 1.3 SSW 19 28 10 15 1021.1 - 0.0
06/11:00am 14.5 10.4 8.0 65 3.3 W 19 28 10 15 1020.9 - 0.0
06/10:30am 14.1 10.2 7.2 63 3.4 W 17 22 9 12 1021.0 - 0.0
06/10:00am 13.2 9.9 8.1 71 2.5 W 15 20 8 11 1020.9 - 0.0
06/09:30am 11.6 8.8 8.5 81 1.5 W 13 20 7 11 1020.7 - 0.0
06/09:00am 9.9 8.0 9.0 94 0.4 WNW 9 13 5 7 1020.6 1020.7 0.6
06/08:30am 9.0 6.9 8.1 94 0.4 NW 9 11 5 6 1020.5 - 0.6
06/08:00am 8.7 6.5 7.9 95 0.4 NW 9 11 5 6 1020.1 - 0.6
06/07:30am 7.8 5.7 6.7 93 0.5 W 7 9 4 5 1019.4 - 0.6
06/07:00am 9.2 7.7 8.3 94 0.4 SW 6 7 3 4 1018.8 - 0.6
06/06:30am 9.5 7.5 8.6 94 0.4 SW 9 11 5 6 1018.5 - 0.6
06/06:00am 9.9 8.0 9.0 94 0.4 W 9 13 5 7 1018.5 1018.6 0.6
06/05:30am 10.5 8.7 9.6 94 0.5 W 9 15 5 8 1018.1 - 0.4
06/05:00am 10.7 8.6 9.8 94 0.5 W 11 15 6 8 1018.0 - 0.4
06/04:30am 10.2 7.6 9.3 94 0.5 WNW 13 17 7 9 1017.9 - 0.2
06/04:00am 9.7 6.9 8.5 92 0.6 NW 13 15 7 8 1018.0 - 0.2
06/03:30am 9.5 6.5 7.8 89 0.8 NW 13 15 7 8 1018.0 - 0.2
06/03:00am 9.4 6.2 7.0 85 1.1 NW 13 15 7 8 1017.9 1018.0 0.2
06/02:30am 9.8 6.5 6.5 80 1.6 NW 13 17 7 9 1018.0 - 0.2
06/02:00am 10.1 6.7 5.9 75 2.0 NW 13 15 7 8 1017.9 - 0.2
06/01:30am 10.5 7.4 5.5 71 2.3 NW 11 13 6 7 1018.0 - 0.2
06/01:00am 11.3 7.8 5.6 68 2.7 NW 13 15 7 8 1018.0 - 0.2
06/12:30am 11.3 8.3 6.2 71 2.4 NNW 11 13 6 7 1018.2 - 0.2
06/12:00am 12.0 8.4 5.2 63 3.2 NNW 13 17 7 9 1018.4 1018.5 0.0
 
Date/Time
CST
Temp
°C
App
Temp
°C
Dew
Point
Rel
Hum
%
Delta-T
°C
Wind Press
QNH
hPa
Press
MSL
hPa
Rain
since 9 am
mm
Dir
 
Spd
km/h
Gust
km/h
Spd
kts
Gust
kts
05/11:30pm 11.8 8.9 4.8 62 3.2 N 9 13 5 7 1018.0 - 0.0
05/11:00pm 12.4 8.8 5.1 61 3.4 N 13 15 7 8 1017.9 - 0.0
05/10:30pm 12.1 8.5 4.8 61 3.4 N 13 15 7 8 1017.9 - 0.0
05/10:00pm 11.8 8.2 4.8 62 3.2 N 13 17 7 9 1017.8 - 0.0
05/09:30pm 12.3 8.4 5.2 62 3.3 N 15 20 8 11 1018.0 - 0.0
05/09:00pm 13.7 10.5 5.1 56 4.0 N 11 15 6 8 1018.2 1018.3 0.0
05/08:30pm 13.5 10.3 5.2 57 3.9 N 11 13 6 7 1017.9 - 0.0
05/08:00pm 13.8 10.9 4.7 54 4.2 NNW 9 11 5 6 1017.9 - 0.0
05/07:30pm 14.7 12.2 3.8 48 5.0 WNW 6 9 3 5 1017.7 - 0.0
05/07:00pm 15.0 12.3 3.5 46 5.3 NW 7 9 4 5 1017.8 - 0.0
05/06:30pm 15.3 12.6 3.5 45 5.4 NW 7 11 4 6 1017.6 - 0.0
05/06:00pm 15.3 12.3 4.1 47 5.2 NW 9 11 5 6 1017.5 1017.6 0.0
05/05:30pm 16.1 12.6 3.5 43 5.8 NNW 11 13 6 7 1017.3 - 0.0
05/05:00pm 17.3 13.0 3.2 39 6.6 NW 15 19 8 10 1017.2 - 0.0
05/04:30pm 18.0 12.8 2.3 35 7.2 NW 19 24 10 13 1017.1 - 0.0
05/04:00pm 18.4 13.0 2.3 34 7.4 NNW 20 28 11 15 1017.0 - 0.0
05/03:30pm 18.9 13.0 1.9 32 7.8 NW 22 32 12 17 1017.0 - 0.0
05/03:00pm 18.7 12.9 2.5 34 7.5 NW 22 32 12 17 1017.3 1017.5 0.0
05/02:30pm 19.3 13.6 2.6 33 7.8 NW 22 32 12 17 1017.6 - 0.0
05/02:00pm 19.5 14.3 3.6 35 7.6 NNW 20 28 11 15 1017.9 - 0.0
05/01:30pm 18.8 13.2 3.4 36 7.3 NNW 22 30 12 16 1018.3 - 0.0
05/01:00pm 18.0 11.9 2.7 36 7.1 NNW 24 33 13 18 1018.7 - 0.0
05/12:30pm 18.0 12.4 3.5 38 6.8 NNW 22 32 12 17 1019.3 - 0.0
05/12:00pm 16.8 11.2 3.5 41 6.2 NNW 22 30 12 16 1019.7 1019.8 0.0
05/11:30am 16.1 10.6 3.9 44 5.7 NNW 22 30 12 16 1020.2 - 0.0
05/11:00am 15.5 9.6 3.9 46 5.4 NNW 24 32 13 17 1020.6 - 0.0
05/10:30am 14.6 9.6 4.6 51 4.7 N 20 28 11 15 1021.0 - 0.0
05/10:00am 13.0 7.6 4.7 57 3.8 NNW 22 30 12 16 1021.2 - 0.0
05/09:30am 11.5 6.1 4.3 61 3.3 N 22 28 12 15 1021.2 - 0.0
05/09:00am 9.9 4.3 3.6 65 2.8 N 22 26 12 14 1021.1 1021.3 0.0
05/08:30am 8.6 3.5 3.0 68 2.4 N 19 24 10 13 1021.0 - 0.0
05/08:00am 7.9 2.8 2.8 70 2.2 N 19 24 10 13 1020.8 - 0.0
05/07:30am 7.7 2.5 2.6 70 2.2 N 19 22 10 12 1020.6 - 0.0
05/07:00am 7.9 2.5 2.4 68 2.3 N 20 26 11 14 1020.5 - 0.0
05/06:30am 7.7 2.3 2.6 70 2.2 N 20 24 11 13 1020.4 - 0.0
05/06:00am 7.7 2.3 2.4 69 2.2 N 20 24 11 13 1020.4 1020.5 0.0
05/05:30am 8.0 2.8 2.7 69 2.2 N 19 24 10 13 1020.6 - 0.0
05/05:00am 7.8 2.6 2.5 69 2.2 N 19 24 10 13 1020.6 - 0.0
05/04:30am 8.0 2.6 2.5 68 2.3 N 20 24 11 13 1020.5 - 0.0
05/04:00am 8.4 3.0 2.2 65 2.6 N 20 24 11 13 1020.6 - 0.0
05/03:30am 8.6 3.2 2.4 65 2.6 N 20 26 11 14 1020.7 - 0.0
05/03:00am 8.5 3.1 2.5 66 2.5 N 20 26 11 14 1020.8 1020.9 0.0
05/02:30am 8.9 3.5 2.5 64 2.7 N 20 26 11 14 1020.9 - 0.0
05/02:00am 8.9 3.7 2.5 64 2.7 N 19 22 10 12 1021.1 - 0.0
05/01:30am 9.1 4.3 2.7 64 2.7 N 17 20 9 11 1021.0 - 0.0
05/01:00am 9.3 4.5 2.4 62 2.9 N 17 20 9 11 1021.2 - 0.0
05/12:30am 9.1 4.6 2.4 63 2.8 N 15 17 8 9 1021.5 - 0.0
05/12:00am 8.5 4.4 2.3 65 2.6 NNE 13 15 7 8 1021.7 1021.9 0.0
 
Date/Time
CST
Temp
°C
App
Temp
°C
Dew
Point
Rel
Hum
%
Delta-T
°C
Wind Press
QNH
hPa
Press
MSL
hPa
Rain
since 9 am
mm
Dir
 
Spd
km/h
Gust
km/h
Spd
kts
Gust
kts
04/11:30pm 9.1 4.2 2.2 62 2.9 N 17 19 9 10 1022.0 - 0.0
04/11:00pm 9.1 4.6 2.4 63 2.8 N 15 17 8 9 1022.2 - 0.0
04/10:30pm 9.0 5.6 1.9 61 3.0 N 9 11 5 6 1022.3 - 0.0
04/10:00pm 9.4 5.3 2.5 62 3.0 N 13 15 7 8 1022.4 - 0.0
04/09:30pm 9.2 5.5 2.3 62 2.9 N 11 13 6 7 1022.5 - 0.0
04/09:00pm 9.2 5.1 2.5 63 2.8 NNE 13 15 7 8 1022.5 1022.7 0.0
04/08:30pm 10.2 7.3 2.8 60 3.2 N 7 7 4 4 1022.4 - 0.0
04/08:00pm 11.7 8.8 2.5 53 4.0 N 7 9 4 5 1022.4 - 0.0
04/07:30pm 10.9 8.2 2.5 56 3.6 N 6 7 3 4 1022.3 - 0.0
04/07:00pm 12.2 9.4 2.1 50 4.4 N 6 7 3 4 1022.3 - 0.0

Other Formats:

Comma delimited format used in spreadsheet applications
http://www.bom.gov.au/fwo/IDS60801/IDS60801.95662.axf

JavaScript Object Notation format (JSON) in row-major order
http://www.bom.gov.au/fwo/IDS60801/IDS60801.95662.json